sensor_id;sensor_type;location;lat;lon;timestamp;P1;durP1;ratioP1;P2;durP2;ratioP2
26718;SDS011;14326;50.794;6.060;2023-04-25T00:05:10;19.65;;;5.18;;
26718;SDS011;14326;50.794;6.060;2023-04-25T00:07:46;20.10;;;4.70;;
26718;SDS011;14326;50.794;6.060;2023-04-25T00:10:13;20.50;;;4.20;;
26718;SDS011;14326;50.794;6.060;2023-04-25T00:12:40;23.65;;;5.60;;
26718;SDS011;14326;50.794;6.060;2023-04-25T00:15:23;20.30;;;5.10;;
26718;SDS011;14326;50.794;6.060;2023-04-25T00:17:52;18.13;;;4.85;;
26718;SDS011;14326;50.794;6.060;2023-04-25T00:20:21;18.65;;;4.55;;
26718;SDS011;14326;50.794;6.060;2023-04-25T00:22:53;20.60;;;5.32;;
26718;SDS011;14326;50.794;6.060;2023-04-25T00:25:29;24.50;;;5.05;;
26718;SDS011;14326;50.794;6.060;2023-04-25T00:27:56;21.90;;;5.07;;
26718;SDS011;14326;50.794;6.060;2023-04-25T00:30:22;20.83;;;5.63;;
26718;SDS011;14326;50.794;6.060;2023-04-25T00:32:49;16.48;;;5.13;;
26718;SDS011;14326;50.794;6.060;2023-04-25T00:35:21;25.17;;;5.10;;
26718;SDS011;14326;50.794;6.060;2023-04-25T00:37:59;20.77;;;5.15;;
26718;SDS011;14326;50.794;6.060;2023-04-25T00:40:49;19.00;;;4.88;;
26718;SDS011;14326;50.794;6.060;2023-04-25T00:43:33;20.25;;;5.20;;
26718;SDS011;14326;50.794;6.060;2023-04-25T00:46:12;22.30;;;5.60;;
26718;SDS011;14326;50.794;6.060;2023-04-25T00:48:46;22.75;;;6.68;;
26718;SDS011;14326;50.794;6.060;2023-04-25T00:51:20;21.48;;;5.75;;
26718;SDS011;14326;50.794;6.060;2023-04-25T00:57:00;20.13;;;4.88;;
26718;SDS011;14326;50.794;6.060;2023-04-25T00:59:29;22.98;;;5.25;;
26718;SDS011;14326;50.794;6.060;2023-04-25T01:01:58;19.45;;;4.63;;
26718;SDS011;14326;50.794;6.060;2023-04-25T01:04:50;20.52;;;5.30;;
26718;SDS011;14326;50.794;6.060;2023-04-25T01:07:41;25.05;;;6.18;;
26718;SDS011;14326;50.794;6.060;2023-04-25T01:10:13;20.55;;;5.60;;
26718;SDS011;14326;50.794;6.060;2023-04-25T01:12:43;21.67;;;6.15;;
26718;SDS011;14326;50.794;6.060;2023-04-25T01:15:38;19.27;;;5.93;;
26718;SDS011;14326;50.794;6.060;2023-04-25T01:18:04;25.35;;;5.88;;
26718;SDS011;14326;50.794;6.060;2023-04-25T01:20:32;19.52;;;5.32;;
26718;SDS011;14326;50.794;6.060;2023-04-25T01:23:00;18.95;;;5.25;;
26718;SDS011;14326;50.794;6.060;2023-04-25T01:25:28;22.15;;;5.88;;
26718;SDS011;14326;50.794;6.060;2023-04-25T01:27:55;22.40;;;5.10;;
26718;SDS011;14326;50.794;6.060;2023-04-25T01:30:22;19.60;;;5.40;;
26718;SDS011;14326;50.794;6.060;2023-04-25T01:32:49;21.42;;;5.38;;
26718;SDS011;14326;50.794;6.060;2023-04-25T01:35:17;17.55;;;5.07;;
26718;SDS011;14326;50.794;6.060;2023-04-25T01:38:04;21.88;;;5.05;;
26718;SDS011;14326;50.794;6.060;2023-04-25T01:40:43;19.55;;;5.88;;
26718;SDS011;14326;50.794;6.060;2023-04-25T01:46:36;22.50;;;5.07;;
26718;SDS011;14326;50.794;6.060;2023-04-25T01:49:19;22.17;;;4.82;;
26718;SDS011;14326;50.794;6.060;2023-04-25T01:51:50;20.13;;;5.25;;
26718;SDS011;14326;50.794;6.060;2023-04-25T01:54:33;21.27;;;5.22;;
26718;SDS011;14326;50.794;6.060;2023-04-25T01:57:09;22.08;;;5.22;;
26718;SDS011;14326;50.794;6.060;2023-04-25T01:59:36;24.10;;;5.47;;
26718;SDS011;14326;50.794;6.060;2023-04-25T02:02:05;19.33;;;5.65;;
26718;SDS011;14326;50.794;6.060;2023-04-25T02:05:00;25.73;;;5.13;;
26718;SDS011;14326;50.794;6.060;2023-04-25T02:07:48;23.52;;;5.70;;
26718;SDS011;14326;50.794;6.060;2023-04-25T02:13:25;27.35;;;5.38;;
26718;SDS011;14326;50.794;6.060;2023-04-25T02:15:51;27.40;;;6.03;;
26718;SDS011;14326;50.794;6.060;2023-04-25T02:18:18;19.63;;;5.72;;
26718;SDS011;14326;50.794;6.060;2023-04-25T02:20:46;24.85;;;6.40;;
26718;SDS011;14326;50.794;6.060;2023-04-25T02:23:31;29.63;;;6.97;;
26718;SDS011;14326;50.794;6.060;2023-04-25T02:25:59;22.50;;;5.60;;
26718;SDS011;14326;50.794;6.060;2023-04-25T02:28:26;28.85;;;6.55;;
26718;SDS011;14326;50.794;6.060;2023-04-25T02:30:53;19.02;;;5.25;;
26718;SDS011;14326;50.794;6.060;2023-04-25T02:33:20;19.00;;;5.53;;
26718;SDS011;14326;50.794;6.060;2023-04-25T02:35:47;25.10;;;5.55;;
26718;SDS011;14326;50.794;6.060;2023-04-25T02:38:16;23.77;;;6.80;;
26718;SDS011;14326;50.794;6.060;2023-04-25T02:41:07;24.45;;;5.93;;
26718;SDS011;14326;50.794;6.060;2023-04-25T02:43:39;22.02;;;5.28;;
26718;SDS011;14326;50.794;6.060;2023-04-25T02:46:13;25.45;;;5.78;;
26718;SDS011;14326;50.794;6.060;2023-04-25T02:48:39;25.42;;;6.15;;
26718;SDS011;14326;50.794;6.060;2023-04-25T02:51:11;22.00;;;5.40;;
26718;SDS011;14326;50.794;6.060;2023-04-25T02:53:37;20.48;;;6.10;;
26718;SDS011;14326;50.794;6.060;2023-04-25T02:56:06;26.65;;;5.68;;
26718;SDS011;14326;50.794;6.060;2023-04-25T02:58:38;21.98;;;6.15;;
26718;SDS011;14326;50.794;6.060;2023-04-25T03:01:23;24.73;;;5.75;;
26718;SDS011;14326;50.794;6.060;2023-04-25T03:03:53;18.73;;;5.15;;
26718;SDS011;14326;50.794;6.060;2023-04-25T03:06:20;28.27;;;6.35;;
26718;SDS011;14326;50.794;6.060;2023-04-25T03:08:47;22.00;;;5.78;;
26718;SDS011;14326;50.794;6.060;2023-04-25T03:11:15;27.42;;;6.30;;
26718;SDS011;14326;50.794;6.060;2023-04-25T03:13:41;19.85;;;6.03;;
26718;SDS011;14326;50.794;6.060;2023-04-25T03:16:08;20.88;;;5.45;;
26718;SDS011;14326;50.794;6.060;2023-04-25T03:18:35;30.08;;;6.00;;
26718;SDS011;14326;50.794;6.060;2023-04-25T03:21:01;27.17;;;6.28;;
26718;SDS011;14326;50.794;6.060;2023-04-25T03:23:34;26.20;;;6.20;;
26718;SDS011;14326;50.794;6.060;2023-04-25T03:26:25;26.55;;;7.97;;
26718;SDS011;14326;50.794;6.060;2023-04-25T03:28:52;22.90;;;6.03;;
26718;SDS011;14326;50.794;6.060;2023-04-25T03:31:24;29.55;;;5.97;;
26718;SDS011;14326;50.794;6.060;2023-04-25T03:33:59;22.40;;;5.60;;
26718;SDS011;14326;50.794;6.060;2023-04-25T03:36:56;25.58;;;5.57;;
26718;SDS011;14326;50.794;6.060;2023-04-25T03:39:25;25.55;;;6.22;;
26718;SDS011;14326;50.794;6.060;2023-04-25T03:41:58;20.20;;;5.30;;
26718;SDS011;14326;50.794;6.060;2023-04-25T03:44:33;19.75;;;4.80;;
26718;SDS011;14326;50.794;6.060;2023-04-25T03:47:02;22.67;;;4.97;;
26718;SDS011;14326;50.794;6.060;2023-04-25T03:49:38;25.33;;;5.65;;
26718;SDS011;14326;50.794;6.060;2023-04-25T03:52:07;25.02;;;5.03;;
26718;SDS011;14326;50.794;6.060;2023-04-25T03:54:34;16.60;;;4.53;;
26718;SDS011;14326;50.794;6.060;2023-04-25T03:57:02;24.63;;;5.07;;
26718;SDS011;14326;50.794;6.060;2023-04-25T03:59:40;22.55;;;5.10;;
26718;SDS011;14326;50.794;6.060;2023-04-25T04:02:12;29.92;;;5.40;;
26718;SDS011;14326;50.794;6.060;2023-04-25T04:04:38;24.83;;;4.97;;
26718;SDS011;14326;50.794;6.060;2023-04-25T04:07:05;27.55;;;4.93;;
26718;SDS011;14326;50.794;6.060;2023-04-25T04:09:35;21.75;;;5.85;;
26718;SDS011;14326;50.794;6.060;2023-04-25T04:12:03;25.02;;;4.97;;
26718;SDS011;14326;50.794;6.060;2023-04-25T04:14:31;24.63;;;5.68;;
26718;SDS011;14326;50.794;6.060;2023-04-25T04:17:01;29.42;;;5.38;;
26718;SDS011;14326;50.794;6.060;2023-04-25T04:19:28;25.48;;;5.25;;
26718;SDS011;14326;50.794;6.060;2023-04-25T04:21:54;18.33;;;4.88;;
26718;SDS011;14326;50.794;6.060;2023-04-25T04:24:23;19.77;;;5.22;;
26718;SDS011;14326;50.794;6.060;2023-04-25T04:27:00;24.40;;;6.07;;
26718;SDS011;14326;50.794;6.060;2023-04-25T04:29:28;24.10;;;4.90;;
26718;SDS011;14326;50.794;6.060;2023-04-25T04:32:00;26.08;;;5.00;;
26718;SDS011;14326;50.794;6.060;2023-04-25T04:34:28;25.65;;;5.30;;
26718;SDS011;14326;50.794;6.060;2023-04-25T04:36:56;25.30;;;5.00;;
26718;SDS011;14326;50.794;6.060;2023-04-25T04:39:22;26.05;;;4.68;;
26718;SDS011;14326;50.794;6.060;2023-04-25T04:41:49;32.42;;;5.28;;
26718;SDS011;14326;50.794;6.060;2023-04-25T04:44:19;26.55;;;5.05;;
26718;SDS011;14326;50.794;6.060;2023-04-25T04:46:50;27.42;;;4.80;;
26718;SDS011;14326;50.794;6.060;2023-04-25T04:49:28;26.85;;;5.47;;
26718;SDS011;14326;50.794;6.060;2023-04-25T04:51:57;29.08;;;5.65;;
26718;SDS011;14326;50.794;6.060;2023-04-25T04:54:28;24.40;;;4.55;;
26718;SDS011;14326;50.794;6.060;2023-04-25T04:57:13;25.45;;;4.90;;
26718;SDS011;14326;50.794;6.060;2023-04-25T04:59:46;23.35;;;4.65;;
26718;SDS011;14326;50.794;6.060;2023-04-25T05:04:47;22.38;;;5.13;;
26718;SDS011;14326;50.794;6.060;2023-04-25T05:07:16;23.02;;;5.05;;
26718;SDS011;14326;50.794;6.060;2023-04-25T05:09:51;22.45;;;4.82;;
26718;SDS011;14326;50.794;6.060;2023-04-25T05:12:25;35.50;;;5.80;;
26718;SDS011;14326;50.794;6.060;2023-04-25T05:14:51;24.00;;;5.28;;
26718;SDS011;14326;50.794;6.060;2023-04-25T05:17:34;24.80;;;5.03;;
26718;SDS011;14326;50.794;6.060;2023-04-25T05:20:02;25.77;;;5.40;;
26718;SDS011;14326;50.794;6.060;2023-04-25T05:24:57;25.30;;;5.25;;
26718;SDS011;14326;50.794;6.060;2023-04-25T05:27:33;28.70;;;5.35;;
26718;SDS011;14326;50.794;6.060;2023-04-25T05:30:13;27.15;;;5.53;;
26718;SDS011;14326;50.794;6.060;2023-04-25T05:32:45;26.40;;;4.97;;
26718;SDS011;14326;50.794;6.060;2023-04-25T05:35:14;27.30;;;5.72;;
26718;SDS011;14326;50.794;6.060;2023-04-25T05:37:41;24.83;;;5.45;;
26718;SDS011;14326;50.794;6.060;2023-04-25T05:40:08;22.85;;;5.05;;
26718;SDS011;14326;50.794;6.060;2023-04-25T05:42:35;23.92;;;5.13;;
26718;SDS011;14326;50.794;6.060;2023-04-25T05:45:02;26.65;;;5.47;;
26718;SDS011;14326;50.794;6.060;2023-04-25T05:47:30;25.73;;;5.13;;
26718;SDS011;14326;50.794;6.060;2023-04-25T05:49:58;21.88;;;4.57;;
26718;SDS011;14326;50.794;6.060;2023-04-25T05:52:25;18.45;;;4.85;;
26718;SDS011;14326;50.794;6.060;2023-04-25T05:54:52;22.00;;;5.43;;
26718;SDS011;14326;50.794;6.060;2023-04-25T05:57:19;31.10;;;6.25;;
26718;SDS011;14326;50.794;6.060;2023-04-25T05:59:55;27.70;;;5.40;;
26718;SDS011;14326;50.794;6.060;2023-04-25T06:02:21;34.70;;;5.78;;
26718;SDS011;14326;50.794;6.060;2023-04-25T06:04:49;25.77;;;4.20;;
26718;SDS011;14326;50.794;6.060;2023-04-25T06:07:16;24.77;;;5.45;;
26718;SDS011;14326;50.794;6.060;2023-04-25T06:09:44;25.23;;;5.78;;
26718;SDS011;14326;50.794;6.060;2023-04-25T06:12:15;32.90;;;5.63;;
26718;SDS011;14326;50.794;6.060;2023-04-25T06:14:51;19.98;;;4.80;;
26718;SDS011;14326;50.794;6.060;2023-04-25T06:17:30;25.30;;;5.25;;
26718;SDS011;14326;50.794;6.060;2023-04-25T06:19:57;18.63;;;4.80;;
26718;SDS011;14326;50.794;6.060;2023-04-25T06:22:23;25.10;;;5.30;;
26718;SDS011;14326;50.794;6.060;2023-04-25T06:24:55;23.08;;;5.15;;
26718;SDS011;14326;50.794;6.060;2023-04-25T06:27:25;22.02;;;5.47;;
26718;SDS011;14326;50.794;6.060;2023-04-25T06:29:52;25.25;;;5.00;;
26718;SDS011;14326;50.794;6.060;2023-04-25T06:32:25;27.80;;;5.75;;
26718;SDS011;14326;50.794;6.060;2023-04-25T06:34:54;23.88;;;6.53;;
26718;SDS011;14326;50.794;6.060;2023-04-25T06:37:21;21.52;;;4.50;;
26718;SDS011;14326;50.794;6.060;2023-04-25T06:39:48;24.30;;;4.60;;
26718;SDS011;14326;50.794;6.060;2023-04-25T06:42:29;23.42;;;4.47;;
26718;SDS011;14326;50.794;6.060;2023-04-25T06:45:17;20.63;;;4.38;;
26718;SDS011;14326;50.794;6.060;2023-04-25T06:47:43;20.35;;;4.18;;
26718;SDS011;14326;50.794;6.060;2023-04-25T06:50:10;25.90;;;4.07;;
26718;SDS011;14326;50.794;6.060;2023-04-25T06:52:37;22.77;;;4.57;;
26718;SDS011;14326;50.794;6.060;2023-04-25T06:55:04;35.88;;;4.80;;
26718;SDS011;14326;50.794;6.060;2023-04-25T06:57:42;22.63;;;4.78;;
26718;SDS011;14326;50.794;6.060;2023-04-25T07:00:25;18.55;;;4.68;;
26718;SDS011;14326;50.794;6.060;2023-04-25T07:03:13;17.10;;;3.95;;
26718;SDS011;14326;50.794;6.060;2023-04-25T07:05:40;18.25;;;4.13;;
26718;SDS011;14326;50.794;6.060;2023-04-25T07:08:13;19.52;;;3.92;;
26718;SDS011;14326;50.794;6.060;2023-04-25T07:11:07;20.85;;;4.13;;
26718;SDS011;14326;50.794;6.060;2023-04-25T07:13:39;17.83;;;4.22;;
26718;SDS011;14326;50.794;6.060;2023-04-25T07:16:06;17.95;;;3.83;;
26718;SDS011;14326;50.794;6.060;2023-04-25T07:18:33;23.17;;;4.43;;
26718;SDS011;14326;50.794;6.060;2023-04-25T07:21:05;26.27;;;4.78;;
26718;SDS011;14326;50.794;6.060;2023-04-25T07:23:33;21.02;;;4.18;;
26718;SDS011;14326;50.794;6.060;2023-04-25T07:26:00;18.92;;;3.83;;
26718;SDS011;14326;50.794;6.060;2023-04-25T07:28:26;21.48;;;4.20;;
26718;SDS011;14326;50.794;6.060;2023-04-25T07:31:05;18.98;;;3.90;;
26718;SDS011;14326;50.794;6.060;2023-04-25T07:33:32;26.05;;;4.70;;
26718;SDS011;14326;50.794;6.060;2023-04-25T07:36:00;23.48;;;4.13;;
26718;SDS011;14326;50.794;6.060;2023-04-25T07:38:29;23.83;;;4.28;;
26718;SDS011;14326;50.794;6.060;2023-04-25T07:40:55;28.38;;;4.25;;
26718;SDS011;14326;50.794;6.060;2023-04-25T07:43:39;21.70;;;4.05;;
26718;SDS011;14326;50.794;6.060;2023-04-25T07:46:22;27.63;;;4.03;;
26718;SDS011;14326;50.794;6.060;2023-04-25T07:48:48;22.83;;;4.28;;
26718;SDS011;14326;50.794;6.060;2023-04-25T07:51:15;23.98;;;4.38;;
26718;SDS011;14326;50.794;6.060;2023-04-25T07:53:45;29.70;;;4.53;;
26718;SDS011;14326;50.794;6.060;2023-04-25T07:59:02;21.90;;;3.95;;
26718;SDS011;14326;50.794;6.060;2023-04-25T08:01:35;24.83;;;4.20;;
26718;SDS011;14326;50.794;6.060;2023-04-25T08:04:25;17.05;;;4.18;;
26718;SDS011;14326;50.794;6.060;2023-04-25T08:06:51;25.13;;;4.13;;
26718;SDS011;14326;50.794;6.060;2023-04-25T08:09:18;21.25;;;4.07;;
26718;SDS011;14326;50.794;6.060;2023-04-25T08:11:49;20.52;;;4.07;;
26718;SDS011;14326;50.794;6.060;2023-04-25T08:14:16;21.15;;;3.90;;
26718;SDS011;14326;50.794;6.060;2023-04-25T08:16:44;20.20;;;4.30;;
26718;SDS011;14326;50.794;6.060;2023-04-25T08:19:11;16.67;;;3.97;;
26718;SDS011;14326;50.794;6.060;2023-04-25T08:21:40;17.80;;;3.53;;
26718;SDS011;14326;50.794;6.060;2023-04-25T08:24:09;20.42;;;3.83;;
26718;SDS011;14326;50.794;6.060;2023-04-25T08:26:38;15.82;;;3.47;;
26718;SDS011;14326;50.794;6.060;2023-04-25T08:29:06;19.17;;;3.90;;
26718;SDS011;14326;50.794;6.060;2023-04-25T08:31:49;16.45;;;3.08;;
26718;SDS011;14326;50.794;6.060;2023-04-25T08:34:49;14.88;;;2.78;;
26718;SDS011;14326;50.794;6.060;2023-04-25T08:37:19;16.55;;;3.15;;
26718;SDS011;14326;50.794;6.060;2023-04-25T08:39:45;18.10;;;3.17;;
26718;SDS011;14326;50.794;6.060;2023-04-25T08:42:13;20.52;;;3.40;;
26718;SDS011;14326;50.794;6.060;2023-04-25T08:44:41;25.17;;;5.63;;
26718;SDS011;14326;50.794;6.060;2023-04-25T08:49:44;17.73;;;3.08;;
26718;SDS011;14326;50.794;6.060;2023-04-25T08:54:45;26.20;;;3.83;;
26718;SDS011;14326;50.794;6.060;2023-04-25T08:57:15;17.27;;;3.13;;
26718;SDS011;14326;50.794;6.060;2023-04-25T08:59:42;13.00;;;3.17;;
26718;SDS011;14326;50.794;6.060;2023-04-25T09:02:10;16.23;;;4.18;;
26718;SDS011;14326;50.794;6.060;2023-04-25T09:04:39;14.63;;;3.38;;
26718;SDS011;14326;50.794;6.060;2023-04-25T09:07:09;15.32;;;2.95;;
26718;SDS011;14326;50.794;6.060;2023-04-25T09:09:36;16.75;;;2.50;;
26718;SDS011;14326;50.794;6.060;2023-04-25T09:12:05;11.52;;;3.47;;
26718;SDS011;14326;50.794;6.060;2023-04-25T09:14:32;22.45;;;2.90;;
26718;SDS011;14326;50.794;6.060;2023-04-25T09:16:59;17.30;;;2.53;;
26718;SDS011;14326;50.794;6.060;2023-04-25T09:21:58;15.73;;;2.90;;
26718;SDS011;14326;50.794;6.060;2023-04-25T09:24:33;13.85;;;3.33;;
26718;SDS011;14326;50.794;6.060;2023-04-25T09:27:09;13.85;;;2.50;;
26718;SDS011;14326;50.794;6.060;2023-04-25T09:29:38;22.10;;;2.88;;
26718;SDS011;14326;50.794;6.060;2023-04-25T09:32:15;10.88;;;2.70;;
26718;SDS011;14326;50.794;6.060;2023-04-25T09:34:45;13.93;;;2.70;;
26718;SDS011;14326;50.794;6.060;2023-04-25T09:37:18;17.52;;;3.15;;
26718;SDS011;14326;50.794;6.060;2023-04-25T09:39:46;18.48;;;3.22;;
26718;SDS011;14326;50.794;6.060;2023-04-25T09:42:15;12.90;;;2.40;;
26718;SDS011;14326;50.794;6.060;2023-04-25T09:44:48;18.38;;;3.10;;
26718;SDS011;14326;50.794;6.060;2023-04-25T09:47:37;13.80;;;3.75;;
26718;SDS011;14326;50.794;6.060;2023-04-25T09:50:15;11.32;;;2.85;;
26718;SDS011;14326;50.794;6.060;2023-04-25T09:52:45;11.15;;;2.90;;
26718;SDS011;14326;50.794;6.060;2023-04-25T09:55:12;14.32;;;2.90;;
26718;SDS011;14326;50.794;6.060;2023-04-25T09:57:38;13.93;;;3.10;;
26718;SDS011;14326;50.794;6.060;2023-04-25T10:00:06;20.35;;;2.90;;
26718;SDS011;14326;50.794;6.060;2023-04-25T10:02:41;16.35;;;3.33;;
26718;SDS011;14326;50.794;6.060;2023-04-25T10:05:26;13.77;;;3.20;;
26718;SDS011;14326;50.794;6.060;2023-04-25T10:07:58;19.67;;;3.67;;
26718;SDS011;14326;50.794;6.060;2023-04-25T10:10:25;24.52;;;3.83;;
26718;SDS011;14326;50.794;6.060;2023-04-25T10:12:53;17.95;;;3.25;;
26718;SDS011;14326;50.794;6.060;2023-04-25T10:15:20;15.23;;;3.50;;
26718;SDS011;14326;50.794;6.060;2023-04-25T10:17:48;18.33;;;3.17;;
26718;SDS011;14326;50.794;6.060;2023-04-25T10:20:16;17.65;;;3.28;;
26718;SDS011;14326;50.794;6.060;2023-04-25T10:22:44;19.10;;;3.58;;
26718;SDS011;14326;50.794;6.060;2023-04-25T10:25:17;11.95;;;4.00;;
26718;SDS011;14326;50.794;6.060;2023-04-25T10:27:44;16.67;;;4.22;;
26718;SDS011;14326;50.794;6.060;2023-04-25T10:35:24;17.25;;;4.22;;
26718;SDS011;14326;50.794;6.060;2023-04-25T10:40:39;15.40;;;3.60;;
26718;SDS011;14326;50.794;6.060;2023-04-25T10:43:33;19.52;;;3.20;;
26718;SDS011;14326;50.794;6.060;2023-04-25T10:46:16;15.30;;;3.40;;
26718;SDS011;14326;50.794;6.060;2023-04-25T10:48:45;16.38;;;3.33;;
26718;SDS011;14326;50.794;6.060;2023-04-25T10:51:17;17.50;;;4.18;;
26718;SDS011;14326;50.794;6.060;2023-04-25T10:53:58;13.93;;;3.75;;
26718;SDS011;14326;50.794;6.060;2023-04-25T10:56:28;16.58;;;3.45;;
26718;SDS011;14326;50.794;6.060;2023-04-25T10:59:06;16.65;;;3.25;;
26718;SDS011;14326;50.794;6.060;2023-04-25T11:01:35;16.35;;;3.30;;
26718;SDS011;14326;50.794;6.060;2023-04-25T11:04:03;21.48;;;3.70;;
26718;SDS011;14326;50.794;6.060;2023-04-25T11:06:32;25.13;;;3.90;;
26718;SDS011;14326;50.794;6.060;2023-04-25T11:09:10;17.95;;;3.88;;
26718;SDS011;14326;50.794;6.060;2023-04-25T11:11:40;13.48;;;3.00;;
26718;SDS011;14326;50.794;6.060;2023-04-25T11:14:07;16.73;;;4.22;;
26718;SDS011;14326;50.794;6.060;2023-04-25T11:16:34;18.42;;;3.70;;
26718;SDS011;14326;50.794;6.060;2023-04-25T11:19:01;17.08;;;3.28;;
26718;SDS011;14326;50.794;6.060;2023-04-25T11:21:28;13.82;;;2.80;;
26718;SDS011;14326;50.794;6.060;2023-04-25T11:23:56;13.77;;;3.20;;
26718;SDS011;14326;50.794;6.060;2023-04-25T11:26:24;16.63;;;3.85;;
26718;SDS011;14326;50.794;6.060;2023-04-25T11:28:55;15.60;;;3.40;;
26718;SDS011;14326;50.794;6.060;2023-04-25T11:31:24;17.52;;;3.60;;
26718;SDS011;14326;50.794;6.060;2023-04-25T11:33:52;17.88;;;3.72;;
26718;SDS011;14326;50.794;6.060;2023-04-25T11:36:19;20.48;;;3.30;;
26718;SDS011;14326;50.794;6.060;2023-04-25T11:38:46;10.68;;;2.80;;
26718;SDS011;14326;50.794;6.060;2023-04-25T11:41:13;14.38;;;3.28;;
26718;SDS011;14326;50.794;6.060;2023-04-25T11:43:40;11.93;;;2.72;;
26718;SDS011;14326;50.794;6.060;2023-04-25T11:46:08;15.00;;;2.90;;
26718;SDS011;14326;50.794;6.060;2023-04-25T11:48:36;13.60;;;2.38;;
26718;SDS011;14326;50.794;6.060;2023-04-25T11:51:04;15.30;;;2.58;;
26718;SDS011;14326;50.794;6.060;2023-04-25T11:53:30;17.20;;;3.42;;
26718;SDS011;14326;50.794;6.060;2023-04-25T11:55:57;19.83;;;2.92;;
26718;SDS011;14326;50.794;6.060;2023-04-25T11:58:24;12.68;;;2.78;;
26718;SDS011;14326;50.794;6.060;2023-04-25T12:00:51;14.48;;;2.85;;
26718;SDS011;14326;50.794;6.060;2023-04-25T12:03:19;14.18;;;2.08;;
26718;SDS011;14326;50.794;6.060;2023-04-25T12:05:49;21.30;;;3.10;;
26718;SDS011;14326;50.794;6.060;2023-04-25T12:08:16;10.30;;;2.75;;
26718;SDS011;14326;50.794;6.060;2023-04-25T12:10:43;11.93;;;2.10;;
26718;SDS011;14326;50.794;6.060;2023-04-25T12:13:18;17.42;;;2.55;;
26718;SDS011;14326;50.794;6.060;2023-04-25T12:15:46;9.38;;;2.30;;
26718;SDS011;14326;50.794;6.060;2023-04-25T12:18:12;9.18;;;2.22;;
26718;SDS011;14326;50.794;6.060;2023-04-25T12:20:41;17.30;;;3.08;;
26718;SDS011;14326;50.794;6.060;2023-04-25T12:23:08;9.38;;;2.88;;
26718;SDS011;14326;50.794;6.060;2023-04-25T12:25:36;12.32;;;2.20;;
26718;SDS011;14326;50.794;6.060;2023-04-25T12:28:13;10.32;;;2.50;;
26718;SDS011;14326;50.794;6.060;2023-04-25T12:30:57;7.72;;;2.10;;
26718;SDS011;14326;50.794;6.060;2023-04-25T12:33:26;11.52;;;2.40;;
26718;SDS011;14326;50.794;6.060;2023-04-25T12:35:56;14.93;;;2.60;;
26718;SDS011;14326;50.794;6.060;2023-04-25T12:38:24;10.57;;;2.30;;
26718;SDS011;14326;50.794;6.060;2023-04-25T12:40:52;13.38;;;2.25;;
26718;SDS011;14326;50.794;6.060;2023-04-25T12:43:19;9.75;;;2.40;;
26718;SDS011;14326;50.794;6.060;2023-04-25T12:45:47;15.50;;;4.30;;
26718;SDS011;14326;50.794;6.060;2023-04-25T12:48:15;10.27;;;2.72;;
26718;SDS011;14326;50.794;6.060;2023-04-25T12:50:41;9.60;;;2.95;;
26718;SDS011;14326;50.794;6.060;2023-04-25T12:53:09;13.80;;;3.00;;
26718;SDS011;14326;50.794;6.060;2023-04-25T12:55:37;9.70;;;2.30;;
26718;SDS011;14326;50.794;6.060;2023-04-25T12:58:03;14.45;;;2.75;;
26718;SDS011;14326;50.794;6.060;2023-04-25T13:00:30;16.20;;;3.00;;
26718;SDS011;14326;50.794;6.060;2023-04-25T13:02:57;15.40;;;2.55;;
26718;SDS011;14326;50.794;6.060;2023-04-25T13:05:24;8.77;;;2.67;;
26718;SDS011;14326;50.794;6.060;2023-04-25T13:07:51;13.93;;;2.83;;
26718;SDS011;14326;50.794;6.060;2023-04-25T13:10:19;12.15;;;2.40;;
26718;SDS011;14326;50.794;6.060;2023-04-25T13:12:46;13.10;;;2.90;;
26718;SDS011;14326;50.794;6.060;2023-04-25T13:15:13;16.52;;;2.85;;
26718;SDS011;14326;50.794;6.060;2023-04-25T13:17:40;11.23;;;2.53;;
26718;SDS011;14326;50.794;6.060;2023-04-25T13:20:08;16.70;;;2.63;;
26718;SDS011;14326;50.794;6.060;2023-04-25T13:22:35;14.32;;;2.72;;
26718;SDS011;14326;50.794;6.060;2023-04-25T13:25:02;12.77;;;2.50;;
26718;SDS011;14326;50.794;6.060;2023-04-25T13:27:32;8.18;;;2.20;;
26718;SDS011;14326;50.794;6.060;2023-04-25T13:30:01;10.25;;;2.30;;
26718;SDS011;14326;50.794;6.060;2023-04-25T13:32:32;11.18;;;2.33;;
26718;SDS011;14326;50.794;6.060;2023-04-25T13:34:58;12.18;;;2.53;;
26718;SDS011;14326;50.794;6.060;2023-04-25T13:37:25;14.18;;;2.53;;
26718;SDS011;14326;50.794;6.060;2023-04-25T13:39:52;11.57;;;2.50;;
26718;SDS011;14326;50.794;6.060;2023-04-25T13:42:20;12.13;;;2.58;;
26718;SDS011;14326;50.794;6.060;2023-04-25T13:44:48;11.98;;;2.22;;
26718;SDS011;14326;50.794;6.060;2023-04-25T13:47:15;14.25;;;2.92;;
26718;SDS011;14326;50.794;6.060;2023-04-25T13:49:41;13.50;;;3.45;;
26718;SDS011;14326;50.794;6.060;2023-04-25T13:52:08;11.77;;;2.58;;
26718;SDS011;14326;50.794;6.060;2023-04-25T13:54:35;8.55;;;2.30;;
26718;SDS011;14326;50.794;6.060;2023-04-25T13:57:01;11.70;;;2.50;;
26718;SDS011;14326;50.794;6.060;2023-04-25T13:59:28;15.40;;;2.50;;
26718;SDS011;14326;50.794;6.060;2023-04-25T14:01:56;9.98;;;2.50;;
26718;SDS011;14326;50.794;6.060;2023-04-25T14:06:56;15.23;;;3.10;;
26718;SDS011;14326;50.794;6.060;2023-04-25T14:09:23;10.55;;;2.60;;
26718;SDS011;14326;50.794;6.060;2023-04-25T14:11:50;10.73;;;2.33;;
26718;SDS011;14326;50.794;6.060;2023-04-25T14:14:17;12.70;;;2.80;;
26718;SDS011;14326;50.794;6.060;2023-04-25T14:16:44;15.43;;;3.53;;
26718;SDS011;14326;50.794;6.060;2023-04-25T14:19:14;12.77;;;3.00;;
26718;SDS011;14326;50.794;6.060;2023-04-25T14:21:41;6.85;;;2.28;;
26718;SDS011;14326;50.794;6.060;2023-04-25T14:24:14;14.02;;;2.63;;
26718;SDS011;14326;50.794;6.060;2023-04-25T14:26:41;12.27;;;2.88;;
26718;SDS011;14326;50.794;6.060;2023-04-25T14:29:12;16.88;;;2.72;;
26718;SDS011;14326;50.794;6.060;2023-04-25T14:31:39;15.18;;;3.58;;
26718;SDS011;14326;50.794;6.060;2023-04-25T14:34:11;15.13;;;3.00;;
26718;SDS011;14326;50.794;6.060;2023-04-25T14:39:24;14.82;;;2.70;;
26718;SDS011;14326;50.794;6.060;2023-04-25T14:42:06;9.77;;;2.80;;
26718;SDS011;14326;50.794;6.060;2023-04-25T14:44:32;13.52;;;2.65;;
26718;SDS011;14326;50.794;6.060;2023-04-25T14:47:02;10.27;;;2.40;;
26718;SDS011;14326;50.794;6.060;2023-04-25T14:49:31;13.45;;;2.97;;
26718;SDS011;14326;50.794;6.060;2023-04-25T14:51:59;15.05;;;2.60;;
26718;SDS011;14326;50.794;6.060;2023-04-25T14:54:26;11.45;;;2.50;;
26718;SDS011;14326;50.794;6.060;2023-04-25T14:56:58;9.07;;;2.70;;
26718;SDS011;14326;50.794;6.060;2023-04-25T14:59:29;11.35;;;2.92;;
26718;SDS011;14326;50.794;6.060;2023-04-25T15:01:56;10.68;;;2.58;;
26718;SDS011;14326;50.794;6.060;2023-04-25T15:04:23;11.77;;;2.75;;
26718;SDS011;14326;50.794;6.060;2023-04-25T15:06:50;16.23;;;3.00;;
26718;SDS011;14326;50.794;6.060;2023-04-25T15:09:18;14.25;;;2.90;;
26718;SDS011;14326;50.794;6.060;2023-04-25T15:11:45;12.50;;;2.83;;
26718;SDS011;14326;50.794;6.060;2023-04-25T15:14:12;12.00;;;3.10;;
26718;SDS011;14326;50.794;6.060;2023-04-25T15:16:38;10.55;;;2.75;;
26718;SDS011;14326;50.794;6.060;2023-04-25T15:19:05;13.55;;;2.90;;
26718;SDS011;14326;50.794;6.060;2023-04-25T15:21:33;10.27;;;2.15;;
26718;SDS011;14326;50.794;6.060;2023-04-25T15:23:59;9.38;;;2.50;;
26718;SDS011;14326;50.794;6.060;2023-04-25T15:26:27;7.25;;;2.22;;
26718;SDS011;14326;50.794;6.060;2023-04-25T15:28:54;8.52;;;2.50;;
26718;SDS011;14326;50.794;6.060;2023-04-25T15:31:21;14.75;;;2.45;;
26718;SDS011;14326;50.794;6.060;2023-04-25T15:33:49;13.32;;;2.50;;
26718;SDS011;14326;50.794;6.060;2023-04-25T15:36:16;13.35;;;2.35;;
26718;SDS011;14326;50.794;6.060;2023-04-25T15:38:43;9.25;;;2.40;;